Погода Жайлауна 2 недели

Жамбылская область, Казахстан

23 июля-05 августа
  • 23июля
    Сегодня
    +22°
    +34°
    Облачно с прояснениями
    ВремяПогодаТемператураВлажностьДавлениеВетер, м/сВероятность осадков
    02:00Ясно и безоблачно+21°C52 %701 мм0.3 м/с2 %
    05:00Ясно и безоблачно+20°C56 %701 мм1.2 м/с2 %
    08:00Облачно с прояснениями+25°C36 %702 мм0.5 м/с7 %
    11:00Облачно с прояснениями+29°C27 %702 мм1.4 м/с17 %
    14:00Облачно с прояснениями+33°C21 %702 мм1.5 м/с16 %
    17:00Небольшая облачность+34°C23 %701 мм3.6 м/с14 %
    20:00Практически безоблачно+30°C33 %702 мм2.5 м/с5 %
    23:00Ясно и безоблачно+25°C43 %700 мм1.7 м/с2 %
  • 24июля
    Среда
    +22°
    +36°
    Практически безоблачно
    ВремяПогодаТемператураВлажностьДавлениеВетер, м/сВероятность осадков
    02:00Ясно и безоблачно+23°C45 %700 мм2.2 м/с2 %
    05:00Ясно и безоблачно+22°C48 %700 мм1.8 м/с2 %
    08:00Ясно и безоблачно+28°C30 %701 мм1.1 м/с2 %
    11:00Ясно и безоблачно+33°C19 %701 мм1.9 м/с2 %
    14:00Практически безоблачно+35°C17 %700 мм3.3 м/с3 %
    17:00Практически безоблачно+35°C18 %700 мм3.8 м/с5 %
    20:00Практически безоблачно+31°C28 %699 мм1.5 м/с2 %
    23:00Ясно и безоблачно+26°C33 %699 мм1.1 м/с2 %
  • 25июля
    Четверг
    +25°
    +38°
    Практически безоблачно
    ВремяПогодаТемператураВлажностьДавлениеВетер, м/сВероятность осадков
    02:00Ясно и безоблачно+23°C43 %698 мм2.0 м/с2 %
    05:00Ясно и безоблачно+23°C46 %699 мм2.1 м/с2 %
    08:00Ясно и безоблачно+29°C27 %700 мм0.7 м/с2 %
    11:00Ясно и безоблачно+34°C16 %700 мм2.0 м/с2 %
    14:00Практически безоблачно+37°C15 %700 мм3.5 м/с2 %
    17:00Облачно с прояснениями+37°C15 %700 мм4.3 м/с2 %
    20:00Пасмурно, сплошная облачность+33°C20 %700 мм0.6 м/с2 %
    23:00Ясно и безоблачно+27°C32 %700 мм0.9 м/с2 %
  • 26июля
    Пятница
    +21°
    +38°
    Ясно и безоблачно
    ВремяПогодаТемператураВлажностьДавлениеВетер, м/сВероятность осадков
    02:00Ясно и безоблачно+25°C36 %699 мм2.8 м/с2 %
    05:00Практически безоблачно+25°C34 %700 мм3.5 м/с2 %
    08:00Ясно и безоблачно+30°C21 %701 мм2.6 м/с2 %
    11:00Ясно и безоблачно+36°C11 %701 мм3.7 м/с2 %
    14:00Ясно и безоблачно+38°C10 %701 мм6.0 м/с2 %
    17:00Ясно и безоблачно+38°C9 %701 мм6.0 м/с2 %
    20:00Ясно и безоблачно+33°C16 %702 мм3.1 м/с2 %
    23:00Ясно и безоблачно+27°C21 %701 мм0.8 м/с2 %
  • 27июля
    Суббота
    +20°
    +37°
    Ясно и безоблачно
    ВремяПогодаТемператураВлажностьДавлениеВетер, м/сВероятность осадков
    02:00Ясно и безоблачно+24°C31 %701 мм1.1 м/с2 %
    05:00Ясно и безоблачно+22°C37 %702 мм0.2 м/с2 %
    08:00Ясно и безоблачно+27°C27 %703 мм0.0 м/с2 %
    11:00Ясно и безоблачно+31°C22 %703 мм1.6 м/с2 %
    14:00Ясно и безоблачно+34°C17 %703 мм2.2 м/с2 %
    17:00Ясно и безоблачно+36°C16 %703 мм4.1 м/с2 %
    20:00Ясно и безоблачно+31°C27 %703 мм1.6 м/с2 %
    23:00Ясно и безоблачно+26°C31 %702 мм0.2 м/с2 %
Мы используем cookies
Соглашаюсь